createdAt,value
2022-11-21T00:03:25.265Z,100041.03
2022-11-21T00:07:26.731Z,100037.72
2022-11-21T00:11:28.354Z,100028.78
2022-11-21T00:15:30.064Z,100018.44
2022-11-21T00:19:31.589Z,100011.09
2022-11-21T00:23:33.157Z,100006.19
2022-11-21T00:27:34.651Z,100004.56
2022-11-21T00:31:36.116Z,100000.97
2022-11-21T00:35:37.605Z,100003.03
2022-11-21T00:39:39.108Z,99999.28
2022-11-21T00:43:40.577Z,99989.53
2022-11-21T00:47:42.069Z,99990.25
2022-11-21T00:51:43.802Z,99993.47
2022-11-21T00:55:45.396Z,99990.00
2022-11-21T00:59:46.861Z,99990.03
2022-11-21T01:03:48.459Z,99982.19
2022-11-21T01:07:49.872Z,99976.59
2022-11-21T01:11:51.617Z,99976.75
2022-11-21T01:15:53.168Z,99980.50
2022-11-21T01:19:54.703Z,99982.63
2022-11-21T01:23:58.463Z,99978.44
2022-11-21T01:27:59.948Z,99974.91
2022-11-21T01:32:01.487Z,99967.28
2022-11-21T01:36:10.372Z,99961.28
2022-11-21T01:40:12.540Z,99957.22
2022-11-21T01:44:19.400Z,99960.72
2022-11-21T01:48:28.666Z,99961.47
2022-11-21T01:52:32.575Z,99959.50
2022-11-21T01:56:41.364Z,99958.91
2022-11-21T02:00:45.693Z,99962.84
2022-11-21T02:04:48.456Z,99958.75
2022-11-21T02:08:50.325Z,99956.03
2022-11-21T02:12:53.599Z,99950.97
2022-11-21T02:17:00.306Z,99951.28
2022-11-21T02:21:37.032Z,99942.50
2022-11-21T02:25:41.508Z,99930.28
2022-11-21T02:29:43.403Z,99935.72
2022-11-21T02:33:44.884Z,99927.94
2022-11-21T02:37:51.748Z,99923.75
2022-11-21T02:42:02.311Z,99924.19
2022-11-21T02:46:03.941Z,99906.31
2022-11-21T02:50:19.626Z,99906.25
2022-11-21T02:54:21.176Z,99904.78
2022-11-21T02:58:22.806Z,99902.66
2022-11-21T03:02:24.363Z,99900.44
2022-11-21T03:06:25.862Z,99891.97
2022-11-21T03:10:27.456Z,99897.03
2022-11-21T03:14:29.185Z,99899.59
2022-11-21T03:18:30.925Z,99894.22
2022-11-21T03:22:32.446Z,99900.16
2022-11-21T03:26:33.924Z,99904.84
2022-11-21T03:30:35.513Z,99907.03
2022-11-21T03:34:37.032Z,99912.06
2022-11-21T03:38:38.551Z,99908.03
2022-11-21T03:42:40.135Z,99911.97
2022-11-21T03:46:46.410Z,99916.66
2022-11-21T03:50:48.014Z,99915.69
2022-11-21T03:54:49.518Z,99912.91
2022-11-21T03:58:51.238Z,99915.16
2022-11-21T04:02:52.744Z,99914.97
2022-11-21T04:06:54.308Z,99915.09
2022-11-21T04:10:55.879Z,99928.81
2022-11-21T04:14:57.415Z,99915.22
2022-11-21T04:18:58.914Z,99914.31
2022-11-21T04:23:00.501Z,99910.69
2022-11-21T04:27:02.060Z,99909.09
2022-11-21T04:31:10.275Z,99905.13
2022-11-21T04:35:12.503Z,99911.63
2022-11-21T04:39:13.993Z,99914.25
2022-11-21T04:43:15.525Z,99920.13
2022-11-21T04:47:17.055Z,99911.25
2022-11-21T04:51:18.589Z,99918.22
2022-11-21T04:55:21.794Z,99925.69
2022-11-21T04:59:23.351Z,99923.75
2022-11-21T05:03:24.949Z,99914.09
2022-11-21T05:07:26.738Z,99913.50
2022-11-21T05:11:46.921Z,99907.16
2022-11-21T05:15:51.600Z,99910.94
2022-11-21T05:19:53.197Z,99922.94
2022-11-21T05:23:54.724Z,99937.47
2022-11-21T05:27:56.869Z,99929.25
2022-11-21T05:31:58.402Z,99932.16
2022-11-21T05:36:00.063Z,99923.31
2022-11-21T05:40:01.680Z,99933.38
2022-11-21T05:44:03.191Z,99926.03
2022-11-21T05:48:08.036Z,99923.69
2022-11-21T05:52:09.828Z,99918.00
2022-11-21T05:56:18.231Z,99925.72
2022-11-21T06:00:19.898Z,99917.69
2022-11-21T06:04:21.435Z,99921.66
2022-11-21T06:08:22.962Z,99924.38
2022-11-21T06:12:25.825Z,99923.63
2022-11-21T06:16:27.409Z,99929.34
2022-11-21T06:20:28.973Z,99930.59
2022-11-21T06:24:30.588Z,99923.94
2022-11-21T06:28:34.502Z,99932.47
2022-11-21T06:32:39.081Z,99934.06
2022-11-21T06:36:40.662Z,99936.31
2022-11-21T06:40:42.144Z,99931.50
2022-11-21T06:44:43.613Z,99935.09
2022-11-21T06:48:45.423Z,99935.38
2022-11-21T06:52:47.101Z,99940.13
2022-11-21T06:56:52.890Z,99941.34
2022-11-21T07:00:54.445Z,99952.53
2022-11-21T07:04:56.066Z,99957.88
2022-11-21T07:09:31.117Z,99961.28
2022-11-21T07:13:21.931Z,99962.13
2022-11-21T07:17:23.619Z,99974.00
2022-11-21T07:21:25.064Z,99972.66
2022-11-21T07:25:26.588Z,99980.34
2022-11-21T07:29:28.229Z,99986.22
2022-11-21T07:33:30.510Z,99988.69
2022-11-21T07:37:32.096Z,99987.00
2022-11-21T07:41:33.589Z,99985.50
2022-11-21T07:45:35.121Z,99996.56
2022-11-21T07:49:37.022Z,99995.03
2022-11-21T07:53:38.532Z,100002.00
2022-11-21T07:57:39.991Z,99999.38
2022-11-21T08:01:45.401Z,100012.06
2022-11-21T08:05:47.289Z,100014.47
2022-11-21T08:09:49.065Z,100015.47
2022-11-21T08:13:50.552Z,100025.00
2022-11-21T08:17:52.019Z,100024.19
2022-11-21T08:21:53.549Z,100024.22
2022-11-21T08:25:54.956Z,100024.44
2022-11-21T08:29:56.433Z,100023.81
2022-11-21T08:33:57.948Z,100033.75
2022-11-21T08:38:01.117Z,100035.94
2022-11-21T08:42:05.502Z,100041.50
2022-11-21T08:46:06.983Z,100054.09
2022-11-21T08:50:09.393Z,100060.38
2022-11-21T08:54:11.086Z,100060.69
2022-11-21T08:58:12.493Z,100055.81
2022-11-21T09:02:13.957Z,100060.22
2022-11-21T09:06:15.604Z,100064.81
2022-11-21T09:10:17.153Z,100063.78
2022-11-21T09:14:37.523Z,100065.06
2022-11-21T09:18:38.829Z,100064.50
2022-11-21T09:22:40.302Z,100073.09
2022-11-21T09:26:41.785Z,100082.72
2022-11-21T09:30:43.788Z,100077.56
2022-11-21T09:34:45.352Z,100090.06
2022-11-21T09:38:46.808Z,100082.63
2022-11-21T09:42:50.932Z,100080.16
2022-11-21T09:47:00.826Z,100084.63
2022-11-21T09:51:05.909Z,100091.03
2022-11-21T09:55:29.343Z,100094.78
2022-11-21T09:59:38.849Z,100109.94
2022-11-21T10:03:49.557Z,100102.44
2022-11-21T10:07:55.668Z,100106.22
2022-11-21T10:12:36.888Z,100108.47
2022-11-21T10:16:42.046Z,100115.75
2022-11-21T10:21:15.940Z,100108.94
2022-11-21T10:25:33.149Z,100115.88
2022-11-21T10:29:45.395Z,100133.72
2022-11-21T10:33:47.881Z,100138.00
2022-11-21T10:38:01.082Z,100139.97
2022-11-21T10:42:36.153Z,100132.44
2022-11-21T10:46:37.560Z,100139.91
2022-11-21T10:51:07.785Z,100129.81
2022-11-21T10:55:14.216Z,100132.34
2022-11-21T10:59:34.156Z,100143.06
2022-11-21T11:03:35.599Z,100138.94
2022-11-21T11:07:37.162Z,100148.28
2022-11-21T11:11:38.635Z,100143.50
2022-11-21T11:16:02.720Z,100149.38
2022-11-21T11:20:07.771Z,100148.72
2022-11-21T11:24:09.137Z,100147.22
2022-11-21T11:28:12.884Z,100158.00
2022-11-21T11:32:21.543Z,100157.22
2022-11-21T11:37:03.939Z,100159.56
2022-11-21T11:41:19.677Z,100164.00
2022-11-21T11:46:14.835Z,100152.94
2022-11-21T11:50:20.084Z,100142.25
2022-11-21T11:54:29.845Z,100138.34
2022-11-21T11:58:40.409Z,100131.69
2022-11-21T12:02:53.275Z,100138.53
2022-11-21T12:12:08.729Z,100150.47
2022-11-21T12:16:14.147Z,100148.44
2022-11-21T12:20:30.549Z,100140.34
2022-11-21T12:24:36.076Z,100132.66
2022-11-21T12:28:41.284Z,100140.75
2022-11-21T12:32:56.902Z,100124.88
2022-11-21T12:37:10.580Z,100130.22
2022-11-21T12:41:50.709Z,100122.66
2022-11-21T12:46:25.901Z,100126.16
2022-11-21T12:50:55.620Z,100118.41
2022-11-21T12:55:14.441Z,100117.16
2022-11-21T12:59:16.088Z,100123.19
2022-11-21T13:03:29.135Z,100113.91
2022-11-21T13:07:32.610Z,100111.66
2022-11-21T13:11:58.027Z,100096.72
2022-11-21T13:16:10.427Z,100097.97
2022-11-21T13:20:24.244Z,100099.91
2022-11-21T13:24:44.167Z,100092.09
2022-11-21T13:28:47.105Z,100098.56
2022-11-21T13:32:53.935Z,100096.06
2022-11-21T13:36:55.339Z,100098.63
2022-11-21T13:41:15.120Z,100095.53
2022-11-21T13:45:43.484Z,100084.91
2022-11-21T13:50:04.448Z,100088.81
2022-11-21T13:54:28.330Z,100082.94
2022-11-21T13:58:52.674Z,100074.25
2022-11-21T14:03:17.494Z,100074.59
2022-11-21T14:07:24.840Z,100061.91
2022-11-21T14:11:38.898Z,100069.47
2022-11-21T14:15:51.206Z,100073.28
2022-11-21T14:19:56.109Z,100068.09
2022-11-21T14:24:04.338Z,100064.03
2022-11-21T14:28:11.575Z,100071.50
2022-11-21T14:32:16.466Z,100060.63
2022-11-21T14:36:26.832Z,100051.41
2022-11-21T14:40:28.262Z,100050.72
2022-11-21T14:44:29.844Z,100046.63
2022-11-21T14:48:32.017Z,100059.69
2022-11-21T14:52:34.180Z,100057.81
2022-11-21T14:56:35.721Z,100073.75
2022-11-21T15:00:59.122Z,100068.03
2022-11-21T15:05:05.007Z,100071.91
2022-11-21T15:13:58.532Z,100080.16
2022-11-21T15:22:34.178Z,100079.56
2022-11-21T15:26:36.135Z,100073.97
2022-11-21T15:30:38.167Z,100069.94
2022-11-21T15:34:39.642Z,100059.84
2022-11-21T15:38:53.461Z,100061.31
2022-11-21T15:42:54.981Z,100057.91
2022-11-21T15:46:56.442Z,100064.97
2022-11-21T15:50:59.092Z,100054.84
2022-11-21T15:55:00.651Z,100051.75
2022-11-21T15:59:02.599Z,100058.00
2022-11-21T16:03:04.026Z,100042.22
2022-11-21T16:07:05.546Z,100039.66
2022-11-21T16:11:11.588Z,100050.84
2022-11-21T16:15:13.259Z,100057.44
2022-11-21T16:19:15.823Z,100053.47
2022-11-21T16:23:17.341Z,100049.34
2022-11-21T16:27:19.047Z,100043.28
2022-11-21T16:31:22.934Z,100031.72
2022-11-21T16:35:24.464Z,100037.31
2022-11-21T16:39:25.919Z,100026.38
2022-11-21T16:43:29.154Z,100041.84
2022-11-21T16:47:30.604Z,100024.81
2022-11-21T16:51:32.083Z,100024.66
2022-11-21T16:55:33.582Z,100026.84
2022-11-21T16:59:35.050Z,100030.22
2022-11-21T17:03:38.708Z,100035.31
2022-11-21T17:07:40.243Z,100040.16
2022-11-21T17:11:41.771Z,100039.38
2022-11-21T17:15:43.307Z,100041.75
2022-11-21T17:19:45.014Z,100028.06
2022-11-21T17:23:48.197Z,100040.44
2022-11-21T17:27:49.728Z,100020.28
2022-11-21T17:31:51.328Z,100020.44
2022-11-21T17:35:53.003Z,100010.09
2022-11-21T17:39:54.470Z,100012.28
2022-11-21T17:43:57.549Z,100009.72
2022-11-21T17:47:58.922Z,100011.84
2022-11-21T17:52:00.360Z,100009.22
2022-11-21T17:56:06.487Z,99991.22
2022-11-21T18:00:08.630Z,99987.25
2022-11-21T18:04:14.895Z,99984.41
2022-11-21T18:08:19.917Z,99986.44
2022-11-21T18:12:27.475Z,99996.41
2022-11-21T18:16:32.575Z,99986.06
2022-11-21T18:20:34.134Z,99990.47
2022-11-21T18:24:35.826Z,99991.22
2022-11-21T18:28:37.685Z,99989.72
2022-11-21T18:32:39.248Z,99988.66
2022-11-21T18:36:43.616Z,99976.66
2022-11-21T18:40:45.188Z,99966.78
2022-11-21T18:44:50.395Z,99957.13
2022-11-21T18:49:04.269Z,99957.81
2022-11-21T18:53:10.038Z,99956.78
2022-11-21T18:57:13.662Z,99955.22
2022-11-21T19:01:20.462Z,99941.25
2022-11-21T19:05:24.834Z,99937.13
2022-11-21T19:09:32.547Z,99946.16
2022-11-21T19:13:37.979Z,99948.47
2022-11-21T19:17:40.402Z,99947.72
2022-11-21T19:21:42.949Z,99931.91
2022-11-21T19:25:44.516Z,99920.94
2022-11-21T19:29:46.025Z,99909.69
2022-11-21T19:33:47.607Z,99895.81
2022-11-21T19:37:49.256Z,99890.88
2022-11-21T19:41:51.150Z,99887.75
2022-11-21T19:45:57.837Z,99876.56
2022-11-21T19:50:00.685Z,99872.78
2022-11-21T19:54:03.509Z,99863.19
2022-11-21T19:58:05.019Z,99857.13
2022-11-21T20:02:06.743Z,99846.78
2022-11-21T20:06:16.260Z,99845.06
2022-11-21T20:10:17.908Z,99850.00
2022-11-21T20:14:22.452Z,99855.22
2022-11-21T20:18:24.554Z,99841.22
2022-11-21T20:22:29.230Z,99840.94
2022-11-21T20:26:32.280Z,99858.16
2022-11-21T20:30:42.077Z,99857.16
2022-11-21T20:34:43.578Z,99850.72
2022-11-21T20:39:12.902Z,99844.34
2022-11-21T20:43:15.863Z,99827.84
2022-11-21T20:47:18.554Z,99827.13
2022-11-21T20:55:45.089Z,99844.75
2022-11-21T20:59:46.647Z,99847.97
2022-11-21T21:03:48.909Z,99843.94
2022-11-21T21:07:50.453Z,99842.94
2022-11-21T21:11:53.427Z,99867.50
2022-11-21T21:15:55.345Z,99867.41
2022-11-21T21:19:56.922Z,99883.84
2022-11-21T21:24:07.184Z,99883.84
2022-11-21T21:28:09.357Z,99894.72
2022-11-21T21:32:11.514Z,99887.06
2022-11-21T21:36:15.250Z,99885.75
2022-11-21T21:40:17.306Z,99893.81
2022-11-21T21:44:19.807Z,99906.91
2022-11-21T21:48:21.312Z,99926.03
2022-11-21T21:52:22.867Z,99900.66
2022-11-21T21:56:26.929Z,99893.22
2022-11-21T22:00:28.383Z,99896.34
2022-11-21T22:04:32.038Z,99889.78
2022-11-21T22:08:35.732Z,99895.78
2022-11-21T22:12:42.556Z,99900.09
2022-11-21T22:16:45.575Z,99886.31
2022-11-21T22:20:47.111Z,99883.22
2022-11-21T22:24:48.585Z,99879.03
2022-11-21T22:28:50.363Z,99875.97
2022-11-21T22:32:52.412Z,99858.56
2022-11-21T22:36:53.975Z,99853.63
2022-11-21T22:41:07.463Z,99842.94
2022-11-21T22:45:09.917Z,99844.72
2022-11-21T22:49:11.503Z,99840.66
2022-11-21T22:53:12.974Z,99835.03
2022-11-21T22:57:14.518Z,99831.25
2022-11-21T23:01:20.112Z,99820.38
2022-11-21T23:05:21.687Z,99826.94
2022-11-21T23:09:23.183Z,99817.84
2022-11-21T23:13:24.697Z,99823.03
2022-11-21T23:17:26.197Z,99829.88
2022-11-21T23:21:27.764Z,99824.66
2022-11-21T23:25:29.202Z,99829.06
2022-11-21T23:29:31.039Z,99827.94
2022-11-21T23:33:32.824Z,99833.97
2022-11-21T23:37:34.309Z,99826.06
2022-11-21T23:41:36.122Z,99821.88
2022-11-21T23:45:37.726Z,99814.00
2022-11-21T23:49:39.216Z,99807.19
2022-11-21T23:53:40.670Z,99807.38
2022-11-21T23:57:42.340Z,99813.69
